»·PEaware :: SAS186 KLAS-KGCN

SAS186 :: KLAS-KGCN

FLIGHT INFORMATION

Flight Status: Arrived
Operator:
SAS
More flights by this operator :: More flights under this callsign
Pilot: Josh G. (4619)
Aircraft: CANADAIR CL-600 CRJ-200
(CRJ2)
More flights by this aircraft type
Origin: KLAS McCarran Intl
United States
Destination: KGCN Grand Canyon Natl Park
United States
More flights between these airports :: More routes between these airports
Route: COWBY6 COWBY PGS
File this flight plan on PilotEdge
Remarks:
Altitude:
(Current/Filed)
21,000ft
Speed:
(Current/Filed)
420kts
Departed: 25-May-16 07:49 PM
Arrived: 25-May-16 08:25 PM
Distance/Time
Traveled:
146nm/0:36
Distance/Time
To Go:
Arrived

Flight Plot

Page will automatically refresh every two minutes.


Map Options




Map Legend


Flown Route
Filed Route
Departure Airport
Arrival Airport
Navaid (VOR, NDB)
Fix

Horizontal Profiles

Position Reports

Time Latitude Longitude Heading Altitude Ground
Speed
25-May-16 19:38 36.079444 -115.138846 217 2187ft 0kts
25-May-16 19:39 36.079043 -115.139274 222 2187ft 0kts
25-May-16 19:40 36.078995 -115.139328 222 2187ft 4kts
25-May-16 19:41 36.078215 -115.134882 92 2187ft 22kts
25-May-16 19:42 36.078202 -115.124814 88 2187ft 30kts
25-May-16 19:43 36.077489 -115.121588 131 2187ft 4kts
25-May-16 19:44 36.077288 -115.121368 148 2187ft 0kts
25-May-16 19:45 36.076402 -115.122165 270 2187ft 0kts
25-May-16 19:46 36.076403 -115.122214 270 2187ft 4kts
25-May-16 19:47 36.076982 -115.163849 270 2934ft 203kts
25-May-16 19:48 36.079831 -115.240922 272 6233ft 238kts
25-May-16 19:49 36.065745 -115.313114 201 9035ft 260kts
25-May-16 19:50 35.990675 -115.307582 173 11648ft 289kts
25-May-16 19:51 35.911412 -115.282901 156 13792ft 319kts
25-May-16 19:52 35.854490 -115.206477 109 16124ft 330kts
25-May-16 19:53 35.827009 -115.097591 106 18250ft 340kts
25-May-16 19:54 35.829914 -114.981207 83 20065ft 350kts
25-May-16 19:55 35.841028 -114.859342 83 21013ft 380kts
25-May-16 19:56 35.853432 -114.723024 83 21016ft 424kts
25-May-16 19:57 35.866427 -114.576408 83 21010ft 436kts
25-May-16 19:58 35.879461 -114.427187 83 21009ft 440kts
25-May-16 19:59 35.892318 -114.277815 83 21009ft 442kts
25-May-16 20:00 35.905069 -114.127452 83 21025ft 443kts
25-May-16 20:01 35.917511 -113.978513 83 21052ft 443kts
25-May-16 20:02 35.874275 -113.845893 132 21058ft 444kts
25-May-16 20:03 35.787138 -113.738538 134 21055ft 446kts
25-May-16 20:04 35.699133 -113.632959 138 21055ft 447kts
25-May-16 20:05 35.641457 -113.503686 88 21060ft 462kts
25-May-16 20:06 35.670990 -113.352334 76 19520ft 453kts
25-May-16 20:07 35.705047 -113.209168 75 17013ft 432kts
25-May-16 20:08 35.736203 -113.077876 75 14827ft 414kts
25-May-16 20:09 35.767467 -112.945406 75 12584ft 400kts
25-May-16 20:10 35.797590 -112.818504 75 11371ft 365kts
25-May-16 20:11 35.823892 -112.706200 76 11324ft 323kts
25-May-16 20:12 35.845826 -112.612039 76 10991ft 251kts
25-May-16 20:13 35.864659 -112.530652 76 9226ft 240kts
25-May-16 20:14 35.882558 -112.453153 77 9024ft 232kts
25-May-16 20:15 35.899810 -112.378279 77 9008ft 227kts
25-May-16 20:16 35.916917 -112.303713 77 9008ft 225kts
25-May-16 20:17 35.943720 -112.235569 56 9010ft 226kts
25-May-16 20:18 35.989686 -112.183579 38 9010ft 226kts
25-May-16 20:19 36.030236 -112.139392 75 8758ft 171kts
25-May-16 20:20 36.009503 -112.099928 170 8342ft 145kts
25-May-16 20:21 35.976903 -112.121039 217 7275ft 133kts
25-May-16 20:22 35.951324 -112.147993 220 6612ft 73kts
25-May-16 20:23 35.947550 -112.150208 38 6612ft 8kts
25-May-16 20:24 35.950652 -112.146942 39 6612ft 15kts
25-May-16 20:25 35.953698 -112.143718 40 6612ft 18kts
25-May-16 20:26 35.956038 -112.140199 50 6612ft 7kts
25-May-16 20:27 35.956645 -112.139794 315 6612ft 0kts
25-May-16 20:28 35.956645 -112.139794 315 6612ft 0kts
25-May-16 20:29 35.956645 -112.139794 315 6612ft 0kts
25-May-16 20:30 35.956645 -112.139794 315 6612ft 0kts
25-May-16 20:31 35.956645 -112.139794 315 6612ft 0kts
25-May-16 20:32 35.956645 -112.139794 315 6612ft 0kts
25-May-16 20:33 35.956645 -112.139794 315 6612ft 0kts
25-May-16 20:34 35.956645 -112.139794 315 6612ft 0kts
25-May-16 20:35 35.956645 -112.139794 315 6612ft 0kts
25-May-16 20:36 35.956645 -112.139794 315 6612ft 0kts
25-May-16 20:37 35.956645 -112.139794 315 6612ft 0kts

Navigation Log

Ident Type
1. KLAS Airport
2. COWBY Fix
3. PGS Navaid
4. KGCN Airport